createdAt,value
2023-05-20T00:00:05.854Z,6.32
2023-05-20T00:03:08.594Z,7.00
2023-05-20T00:06:11.479Z,7.45
2023-05-20T00:09:14.434Z,6.97
2023-05-20T00:12:17.111Z,7.00
2023-05-20T00:15:20.016Z,7.20
2023-05-20T00:18:22.884Z,7.07
2023-05-20T00:21:25.714Z,7.32
2023-05-20T00:24:28.716Z,6.82
2023-05-20T00:27:31.605Z,7.78
2023-05-20T00:30:34.342Z,7.50
2023-05-20T00:33:37.374Z,7.93
2023-05-20T00:36:40.158Z,7.82
2023-05-20T00:39:43.052Z,8.60
2023-05-20T00:42:46.101Z,8.02
2023-05-20T00:45:49.035Z,7.47
2023-05-20T00:48:51.967Z,8.35
2023-05-20T00:51:54.662Z,8.30
2023-05-20T00:54:59.013Z,8.88
2023-05-20T00:58:02.109Z,8.52
2023-05-20T01:01:05.483Z,8.93
2023-05-20T01:04:08.204Z,8.90
2023-05-20T01:07:10.959Z,8.30
2023-05-20T01:10:13.837Z,8.30
2023-05-20T01:13:21.184Z,8.77
2023-05-20T01:16:25.202Z,8.57
2023-05-20T01:19:37.120Z,8.88
2023-05-20T01:22:50.034Z,8.00
2023-05-20T01:25:52.702Z,7.65
2023-05-20T01:28:58.239Z,8.32
2023-05-20T01:32:02.083Z,8.00
2023-05-20T01:35:05.404Z,7.72
2023-05-20T01:38:08.361Z,7.80
2023-05-20T01:41:12.638Z,8.45
2023-05-20T01:44:15.705Z,8.43
2023-05-20T01:47:18.607Z,7.95
2023-05-20T01:50:21.527Z,8.18
2023-05-20T01:53:24.443Z,7.75
2023-05-20T01:56:27.735Z,8.57
2023-05-20T01:59:30.780Z,8.10
2023-05-20T02:02:33.836Z,7.93
2023-05-20T02:05:37.764Z,8.68
2023-05-20T02:08:41.230Z,8.50
2023-05-20T02:11:44.110Z,7.43
2023-05-20T02:14:48.262Z,8.10
2023-05-20T02:17:51.978Z,8.45
2023-05-20T02:20:54.915Z,7.97
2023-05-20T02:23:57.993Z,8.30
2023-05-20T02:27:03.810Z,8.05
2023-05-20T02:30:08.882Z,8.02
2023-05-20T02:33:12.673Z,8.45
2023-05-20T02:36:17.527Z,7.90
2023-05-20T02:39:21.121Z,8.88
2023-05-20T02:42:24.016Z,7.75
2023-05-20T02:45:29.385Z,7.88
2023-05-20T02:48:32.155Z,8.18
2023-05-20T02:51:35.050Z,9.50
2023-05-20T02:54:38.156Z,9.10
2023-05-20T02:57:41.231Z,9.18
2023-05-20T03:00:45.777Z,8.98
2023-05-20T03:03:48.838Z,8.63
2023-05-20T03:06:52.478Z,8.50
2023-05-20T03:09:55.667Z,9.45
2023-05-20T03:12:58.616Z,9.05
2023-05-20T03:16:01.895Z,8.50
2023-05-20T03:19:04.974Z,8.43
2023-05-20T03:22:08.230Z,8.32
2023-05-20T03:25:11.332Z,8.90
2023-05-20T03:28:14.104Z,8.27
2023-05-20T03:31:18.037Z,8.07
2023-05-20T03:34:21.329Z,8.02
2023-05-20T03:37:25.414Z,8.25
2023-05-20T03:40:28.326Z,7.18
2023-05-20T03:43:31.544Z,6.93
2023-05-20T03:46:35.150Z,7.63
2023-05-20T03:49:40.789Z,8.45
2023-05-20T03:52:43.756Z,8.35
2023-05-20T03:55:46.877Z,7.97
2023-05-20T03:58:50.099Z,7.90
2023-05-20T04:01:54.230Z,7.88
2023-05-20T04:04:58.165Z,7.20
2023-05-20T04:08:01.459Z,7.72
2023-05-20T04:11:04.481Z,8.07
2023-05-20T04:14:07.511Z,6.93
2023-05-20T04:17:10.891Z,7.05
2023-05-20T04:20:14.027Z,7.60
2023-05-20T04:23:17.012Z,7.10
2023-05-20T04:26:21.114Z,7.20
2023-05-20T04:29:24.234Z,6.97
2023-05-20T04:32:29.479Z,7.25
2023-05-20T04:35:32.770Z,6.88
2023-05-20T04:38:40.465Z,7.85
2023-05-20T04:41:43.568Z,6.93
2023-05-20T04:44:48.381Z,6.68
2023-05-20T04:47:51.358Z,6.97
2023-05-20T04:50:54.786Z,6.28
2023-05-20T04:53:59.339Z,6.82
2023-05-20T04:57:04.901Z,6.53
2023-05-20T05:00:09.824Z,7.30
2023-05-20T05:03:13.781Z,6.80
2023-05-20T05:06:17.331Z,7.55
2023-05-20T05:09:20.198Z,7.57
2023-05-20T05:12:23.183Z,7.13
2023-05-20T05:15:26.304Z,7.18
2023-05-20T05:18:29.645Z,7.25
2023-05-20T05:21:32.644Z,7.25
2023-05-20T05:24:35.963Z,6.63
2023-05-20T05:27:39.139Z,7.00
2023-05-20T05:30:42.869Z,6.53
2023-05-20T05:33:45.917Z,7.97
2023-05-20T05:36:48.899Z,7.45
2023-05-20T05:39:51.902Z,7.78
2023-05-20T05:42:54.869Z,7.10
2023-05-20T05:45:58.078Z,7.20
2023-05-20T05:49:01.535Z,6.90
2023-05-20T05:52:04.880Z,6.57
2023-05-20T05:55:09.260Z,6.95
2023-05-20T05:58:12.864Z,6.20
2023-05-20T06:01:16.008Z,6.68
2023-05-20T06:04:19.818Z,6.45
2023-05-20T06:07:23.922Z,6.38
2023-05-20T06:10:27.710Z,6.40
2023-05-20T06:13:31.268Z,7.28
2023-05-20T06:16:34.301Z,6.47
2023-05-20T06:19:37.400Z,6.28
2023-05-20T06:22:40.324Z,7.28
2023-05-20T06:25:43.217Z,6.57
2023-05-20T06:28:46.106Z,6.78
2023-05-20T06:31:49.380Z,6.93
2023-05-20T06:34:52.139Z,6.53
2023-05-20T06:37:56.065Z,6.45
2023-05-20T06:40:58.923Z,6.32
2023-05-20T06:44:02.333Z,6.38
2023-05-20T06:47:23.838Z,6.40
2023-05-20T06:50:28.853Z,6.35
2023-05-20T06:53:31.861Z,5.57
2023-05-20T06:56:34.759Z,5.93
2023-05-20T06:59:37.790Z,6.50
2023-05-20T07:02:42.817Z,5.95
2023-05-20T07:05:48.685Z,6.27
2023-05-20T07:08:51.621Z,6.35
2023-05-20T07:11:55.093Z,6.28
2023-05-20T07:14:58.126Z,5.80
2023-05-20T07:18:01.777Z,6.00
2023-05-20T07:21:05.616Z,6.05
2023-05-20T07:24:38.352Z,5.55
2023-05-20T07:27:41.602Z,5.40
2023-05-20T07:30:50.250Z,5.38
2023-05-20T07:34:16.214Z,5.57
2023-05-20T07:37:19.576Z,5.53
2023-05-20T07:40:22.858Z,5.65
2023-05-20T07:43:25.921Z,5.05
2023-05-20T07:46:29.221Z,5.03
2023-05-20T07:49:32.320Z,5.35
2023-05-20T07:52:44.019Z,5.32
2023-05-20T07:55:51.330Z,4.78
2023-05-20T07:58:56.472Z,5.18
2023-05-20T08:02:01.398Z,5.38
2023-05-20T08:05:05.725Z,4.22
2023-05-20T08:08:10.782Z,4.45
2023-05-20T08:11:25.057Z,4.67
2023-05-20T08:14:28.986Z,3.83
2023-05-20T08:17:32.850Z,3.92
2023-05-20T08:20:36.611Z,4.25
2023-05-20T08:23:40.532Z,4.68
2023-05-20T08:26:43.880Z,3.88
2023-05-20T08:29:46.970Z,3.63
2023-05-20T08:32:50.931Z,3.72
2023-05-20T08:35:55.957Z,3.53
2023-05-20T08:38:59.044Z,3.63
2023-05-20T08:42:02.250Z,3.10
2023-05-20T08:45:06.696Z,3.40
2023-05-20T08:48:12.197Z,2.72
2023-05-20T08:51:16.911Z,2.95
2023-05-20T08:54:21.500Z,3.15
2023-05-20T08:57:26.776Z,3.55
2023-05-20T09:00:29.791Z,3.50
2023-05-20T09:03:33.896Z,4.03
2023-05-20T09:06:45.901Z,3.15
2023-05-20T09:09:51.499Z,4.18
2023-05-20T09:12:54.473Z,6.25
2023-05-20T09:15:57.327Z,6.63
2023-05-20T09:19:00.278Z,3.50
2023-05-20T09:22:04.630Z,5.18
2023-05-20T09:25:08.499Z,4.00
2023-05-20T09:28:12.176Z,4.65
2023-05-20T09:31:15.460Z,4.05
2023-05-20T09:34:18.863Z,3.42
2023-05-20T09:37:22.487Z,9.35
2023-05-20T09:40:28.668Z,3.47
2023-05-20T09:43:31.804Z,7.80
2023-05-20T09:46:35.360Z,3.72
2023-05-20T09:49:38.607Z,8.52
2023-05-20T09:52:41.983Z,4.55
2023-05-20T09:55:45.258Z,4.32
2023-05-20T10:01:54.271Z,3.92
2023-05-20T10:04:58.492Z,4.28
2023-05-20T10:08:20.089Z,4.25
2023-05-20T10:11:26.340Z,4.40
2023-05-20T10:14:32.585Z,4.30
2023-05-20T10:20:51.378Z,4.70
2023-05-20T10:23:54.550Z,3.83
2023-05-20T10:26:58.836Z,4.10
2023-05-20T10:30:01.804Z,4.70
2023-05-20T10:33:07.359Z,8.57
2023-05-20T10:36:11.136Z,4.70
2023-05-20T10:39:17.915Z,4.50
2023-05-20T10:42:30.110Z,5.03
2023-05-20T10:45:33.405Z,4.72
2023-05-20T10:48:36.874Z,4.97
2023-05-20T10:51:40.168Z,4.68
2023-05-20T10:55:05.253Z,4.82
2023-05-20T10:58:08.415Z,5.22
2023-05-20T11:01:11.516Z,5.10
2023-05-20T11:04:16.672Z,4.70
2023-05-20T11:07:30.443Z,4.95
2023-05-20T11:10:37.435Z,4.03
2023-05-20T11:13:40.377Z,5.05
2023-05-20T11:16:43.435Z,4.90
2023-05-20T11:19:47.917Z,5.13
2023-05-20T11:22:55.246Z,5.00
2023-05-20T11:25:58.625Z,4.55
2023-05-20T11:29:02.236Z,4.93
2023-05-20T11:32:05.658Z,4.60
2023-05-20T11:35:09.192Z,4.65
2023-05-20T11:38:12.239Z,4.65
2023-05-20T11:41:15.221Z,4.88
2023-05-20T11:44:20.645Z,4.85
2023-05-20T11:47:29.573Z,4.95
2023-05-20T11:50:39.868Z,5.45
2023-05-20T11:53:42.913Z,5.50
2023-05-20T11:56:46.091Z,6.40
2023-05-20T11:59:51.424Z,5.85
2023-05-20T12:02:54.698Z,6.00
2023-05-20T12:05:57.790Z,5.47
2023-05-20T12:09:07.497Z,5.90
2023-05-20T12:12:14.646Z,5.13
2023-05-20T12:15:20.103Z,5.60
2023-05-20T12:18:23.365Z,5.55
2023-05-20T12:21:26.665Z,5.20
2023-05-20T12:24:29.557Z,5.43
2023-05-20T12:27:34.513Z,5.43
2023-05-20T12:30:37.778Z,5.43
2023-05-20T12:33:40.500Z,5.28
2023-05-20T12:36:43.551Z,5.63
2023-05-20T12:39:46.982Z,6.25
2023-05-20T12:42:49.995Z,5.80
2023-05-20T12:45:53.087Z,5.80
2023-05-20T12:48:56.492Z,6.07
2023-05-20T12:52:01.444Z,6.32
2023-05-20T12:55:14.107Z,6.65
2023-05-20T12:58:19.353Z,5.40
2023-05-20T13:01:22.335Z,6.25
2023-05-20T13:04:25.452Z,6.55
2023-05-20T13:07:28.514Z,5.25
2023-05-20T13:10:31.503Z,5.60
2023-05-20T13:13:34.468Z,6.85
2023-05-20T13:16:37.887Z,7.32
2023-05-20T13:19:40.892Z,6.45
2023-05-20T13:22:43.905Z,5.63
2023-05-20T13:25:46.749Z,6.43
2023-05-20T13:28:50.791Z,6.65
2023-05-20T13:31:53.946Z,5.90
2023-05-20T13:34:57.834Z,7.00
2023-05-20T13:38:01.028Z,5.97
2023-05-20T13:41:04.298Z,6.10
2023-05-20T13:44:07.592Z,5.78
2023-05-20T13:47:10.631Z,6.03
2023-05-20T13:50:13.866Z,6.57
2023-05-20T13:53:16.864Z,6.00
2023-05-20T13:56:20.221Z,5.30
2023-05-20T13:59:23.190Z,5.82
2023-05-20T14:02:26.350Z,6.60
2023-05-20T14:05:29.417Z,6.30
2023-05-20T14:08:32.220Z,5.93
2023-05-20T14:11:35.246Z,5.90
2023-05-20T14:14:38.213Z,6.03
2023-05-20T14:17:41.520Z,6.25
2023-05-20T14:20:45.754Z,6.72
2023-05-20T14:23:48.895Z,8.88
2023-05-20T14:26:52.092Z,6.60
2023-05-20T14:29:54.919Z,6.63
2023-05-20T14:32:57.859Z,7.35
2023-05-20T14:36:00.972Z,5.97
2023-05-20T14:39:04.325Z,5.57
2023-05-20T14:42:07.260Z,7.05
2023-05-20T14:45:10.707Z,8.45
2023-05-20T14:48:13.837Z,8.35
2023-05-20T14:51:16.823Z,5.97
2023-05-20T14:54:25.314Z,5.03
2023-05-20T14:57:28.467Z,5.72
2023-05-20T15:00:33.108Z,5.85
2023-05-20T15:03:36.553Z,5.50
2023-05-20T15:06:39.777Z,6.45
2023-05-20T15:09:44.028Z,5.95
2023-05-20T15:12:46.792Z,6.13
2023-05-20T15:15:49.618Z,5.18
2023-05-20T15:18:52.570Z,5.82
2023-05-20T15:21:56.590Z,6.07
2023-05-20T15:24:59.674Z,6.07
2023-05-20T15:28:02.569Z,5.60
2023-05-20T15:31:05.645Z,5.78
2023-05-20T15:34:08.755Z,5.65
2023-05-20T15:37:13.654Z,5.83
2023-05-20T15:40:17.530Z,5.10
2023-05-20T15:43:20.676Z,5.80
2023-05-20T15:46:25.113Z,5.57
2023-05-20T15:49:28.268Z,5.03
2023-05-20T15:52:31.727Z,5.75
2023-05-20T15:55:35.566Z,6.50
2023-05-20T15:58:38.700Z,5.50
2023-05-20T16:01:41.556Z,6.00
2023-05-20T16:04:44.456Z,7.80
2023-05-20T16:07:47.898Z,6.20
2023-05-20T16:10:51.338Z,6.05
2023-05-20T16:13:54.130Z,5.80
2023-05-20T16:16:56.827Z,6.05
2023-05-20T16:19:59.669Z,5.28
2023-05-20T16:23:02.919Z,5.50
2023-05-20T16:26:05.808Z,5.68
2023-05-20T16:29:08.619Z,5.78
2023-05-20T16:32:11.537Z,5.60
2023-05-20T16:35:16.111Z,5.65
2023-05-20T16:38:19.288Z,5.45
2023-05-20T16:41:23.590Z,5.72
2023-05-20T16:44:26.614Z,5.90
2023-05-20T16:47:29.691Z,6.10
2023-05-20T16:50:32.922Z,6.28
2023-05-20T16:53:36.277Z,6.10
2023-05-20T16:56:42.616Z,5.55
2023-05-20T16:59:46.347Z,5.68
2023-05-20T17:02:49.253Z,5.80
2023-05-20T17:05:52.420Z,6.32
2023-05-20T17:08:55.257Z,6.55
2023-05-20T17:11:58.538Z,6.50
2023-05-20T17:15:01.633Z,6.63
2023-05-20T17:18:04.974Z,7.20
2023-05-20T17:21:07.840Z,7.03
2023-05-20T17:24:11.182Z,7.30
2023-05-20T17:27:14.645Z,6.95
2023-05-20T17:30:17.909Z,6.88
2023-05-20T17:33:21.167Z,7.53
2023-05-20T17:36:24.297Z,7.35
2023-05-20T17:39:27.295Z,7.35
2023-05-20T17:42:32.234Z,7.38
2023-05-20T17:45:35.231Z,8.02
2023-05-20T17:48:38.053Z,18.73
2023-05-20T17:51:42.617Z,10.35
2023-05-20T17:54:46.036Z,14.32
2023-05-20T17:57:49.088Z,8.68
2023-05-20T18:00:52.549Z,8.77
2023-05-20T18:03:55.580Z,11.70
2023-05-20T18:06:58.850Z,9.63
2023-05-20T18:10:01.577Z,14.07
2023-05-20T18:13:04.639Z,8.25
2023-05-20T18:16:07.657Z,13.45
2023-05-20T18:19:10.679Z,10.93
2023-05-20T18:22:13.672Z,56.45
2023-05-20T18:25:17.189Z,29.42
2023-05-20T18:28:20.148Z,21.85
2023-05-20T18:31:23.322Z,25.75
2023-05-20T18:34:27.336Z,13.75
2023-05-20T18:37:30.393Z,9.10
2023-05-20T18:40:33.589Z,7.40
2023-05-20T18:43:39.227Z,9.03
2023-05-20T18:46:42.591Z,10.45
2023-05-20T18:49:45.550Z,24.77
2023-05-20T18:52:48.817Z,48.15
2023-05-20T18:55:51.934Z,23.25
2023-05-20T18:58:55.082Z,17.40
2023-05-20T19:01:58.636Z,20.65
2023-05-20T19:05:01.517Z,25.95
2023-05-20T19:08:06.130Z,30.15
2023-05-20T19:11:09.500Z,24.52
2023-05-20T19:14:12.704Z,30.52
2023-05-20T19:17:16.045Z,10.07
2023-05-20T19:20:19.074Z,11.80
2023-05-20T19:23:22.003Z,8.40
2023-05-20T19:26:28.064Z,8.88
2023-05-20T19:29:31.285Z,7.00
2023-05-20T19:32:35.164Z,7.53
2023-05-20T19:35:38.398Z,7.07
2023-05-20T19:38:42.132Z,7.18
2023-05-20T19:41:45.165Z,7.25
2023-05-20T19:44:48.327Z,7.85
2023-05-20T19:47:53.331Z,7.60
2023-05-20T19:50:56.299Z,7.55
2023-05-20T19:53:59.481Z,7.65
2023-05-20T19:57:02.963Z,6.90
2023-05-20T20:00:11.675Z,6.38
2023-05-20T20:03:17.522Z,7.18
2023-05-20T20:06:20.868Z,7.40
2023-05-20T20:09:23.662Z,7.13
2023-05-20T20:12:26.935Z,7.30
2023-05-20T20:15:31.298Z,7.05
2023-05-20T20:18:34.188Z,7.20
2023-05-20T20:21:37.202Z,7.35
2023-05-20T20:24:40.222Z,7.28
2023-05-20T20:27:44.449Z,7.20
2023-05-20T20:30:47.594Z,7.07
2023-05-20T20:33:51.204Z,6.90
2023-05-20T20:36:55.023Z,6.63
2023-05-20T20:39:57.871Z,6.30
2023-05-20T20:43:01.301Z,5.78
2023-05-20T20:46:06.867Z,6.40
2023-05-20T20:49:10.094Z,7.18
2023-05-20T20:52:13.249Z,7.13
2023-05-20T20:55:16.363Z,6.10
2023-05-20T20:58:19.621Z,6.50
2023-05-20T21:01:22.674Z,6.05
2023-05-20T21:04:28.136Z,6.47
2023-05-20T21:07:32.955Z,7.13
2023-05-20T21:10:37.498Z,6.90
2023-05-20T21:13:41.007Z,7.15
2023-05-20T21:16:44.203Z,6.95
2023-05-20T21:19:47.005Z,6.43
2023-05-20T21:22:49.776Z,7.45
2023-05-20T21:25:53.824Z,6.53
2023-05-20T21:28:56.693Z,6.10
2023-05-20T21:31:59.876Z,5.60
2023-05-20T21:35:02.821Z,6.22
2023-05-20T21:38:05.991Z,6.82
2023-05-20T21:41:09.471Z,6.60
2023-05-20T21:44:12.294Z,6.15
2023-05-20T21:47:15.183Z,7.22
2023-05-20T21:50:18.364Z,6.70
2023-05-20T21:53:21.422Z,8.90
2023-05-20T21:56:24.250Z,7.47
2023-05-20T21:59:27.226Z,7.70
2023-05-20T22:02:30.254Z,6.93
2023-05-20T22:05:34.526Z,6.57
2023-05-20T22:08:37.703Z,6.30
2023-05-20T22:11:40.524Z,6.13
2023-05-20T22:14:43.447Z,7.93
2023-05-20T22:17:48.013Z,7.07
2023-05-20T22:20:51.226Z,8.60
2023-05-20T22:23:54.300Z,8.88
2023-05-20T22:26:57.202Z,9.50
2023-05-20T22:30:00.154Z,8.48
2023-05-20T22:33:03.100Z,8.05
2023-05-20T22:36:06.238Z,7.32
2023-05-20T22:39:09.010Z,7.45
2023-05-20T22:42:11.815Z,7.60
2023-05-20T22:45:14.823Z,7.10
2023-05-20T22:48:17.790Z,8.00
2023-05-20T22:51:25.057Z,6.85
2023-05-20T22:54:28.113Z,6.40
2023-05-20T22:57:30.881Z,7.07
2023-05-20T23:00:34.898Z,7.05
2023-05-20T23:03:38.092Z,7.28
2023-05-20T23:06:41.047Z,7.03
2023-05-20T23:09:47.298Z,6.25
2023-05-20T23:12:50.260Z,6.63
2023-05-20T23:15:53.106Z,6.05
2023-05-20T23:18:56.743Z,6.53
2023-05-20T23:22:00.000Z,5.53
2023-05-20T23:25:02.790Z,6.07
2023-05-20T23:28:06.091Z,6.45
2023-05-20T23:31:09.582Z,6.63
2023-05-20T23:34:12.524Z,6.35
2023-05-20T23:37:15.273Z,7.13
2023-05-20T23:40:18.005Z,6.47
2023-05-20T23:43:20.864Z,6.45
2023-05-20T23:46:23.883Z,6.10
2023-05-20T23:49:27.431Z,6.30
2023-05-20T23:52:30.422Z,6.38
2023-05-20T23:55:33.465Z,6.68
2023-05-20T23:58:36.874Z,6.85
